createdAt,value
2023-05-18T00:01:09.261Z,67.59
2023-05-18T00:06:31.082Z,67.21
2023-05-18T00:11:23.520Z,70.12
2023-05-18T00:16:23.521Z,68.99
2023-05-18T00:21:23.400Z,69.60
2023-05-18T00:26:23.317Z,73.23
2023-05-18T00:31:23.298Z,73.71
2023-05-18T00:36:23.213Z,73.44
2023-05-18T00:41:23.120Z,74.77
2023-05-18T00:46:23.134Z,76.73
2023-05-18T00:51:23.022Z,76.45
2023-05-18T00:56:22.980Z,77.00
2023-05-18T01:01:22.927Z,76.07
2023-05-18T01:06:22.815Z,75.97
2023-05-18T01:11:22.766Z,74.63
2023-05-18T01:16:22.695Z,75.12
2023-05-18T01:21:22.609Z,78.65
2023-05-18T01:26:22.532Z,78.69
2023-05-18T01:31:22.488Z,79.41
2023-05-18T01:36:22.421Z,79.55
2023-05-18T01:41:22.373Z,80.62
2023-05-18T01:46:22.421Z,82.78
2023-05-18T01:51:22.192Z,80.86
2023-05-18T01:56:22.172Z,82.61
2023-05-18T02:01:22.133Z,82.03
2023-05-18T02:06:22.034Z,82.10
2023-05-18T02:11:21.960Z,82.20
2023-05-18T02:16:21.920Z,81.58
2023-05-18T02:21:21.796Z,82.45
2023-05-18T02:26:21.732Z,81.48
2023-05-18T02:31:21.712Z,80.18
2023-05-18T02:36:21.607Z,82.65
2023-05-18T02:41:22.215Z,82.14
2023-05-18T02:46:21.648Z,83.06
2023-05-18T02:51:21.423Z,82.69
2023-05-18T02:56:21.354Z,83.72
2023-05-18T03:01:21.353Z,83.97
2023-05-18T03:06:21.205Z,83.86
2023-05-18T03:11:21.182Z,83.86
2023-05-18T03:16:21.121Z,83.65
2023-05-18T03:21:21.035Z,84.28
2023-05-18T03:26:20.978Z,82.73
2023-05-18T03:31:20.921Z,82.83
2023-05-18T03:36:20.822Z,84.69
2023-05-18T03:41:20.735Z,84.63
2023-05-18T03:46:20.814Z,84.17
2023-05-18T03:51:20.596Z,84.42
2023-05-18T03:56:20.546Z,85.24
2023-05-18T04:01:20.473Z,86.28
2023-05-18T04:06:20.439Z,85.70
2023-05-18T04:11:20.332Z,85.39
2023-05-18T04:16:41.141Z,82.87
2023-05-18T04:21:33.513Z,84.17
2023-05-18T04:26:33.430Z,84.13
2023-05-18T04:31:33.442Z,82.59
2023-05-18T04:36:33.317Z,84.03
2023-05-18T04:41:33.240Z,86.24
2023-05-18T04:46:33.211Z,85.72
2023-05-18T04:51:33.125Z,84.96
2023-05-18T04:56:33.031Z,84.65
2023-05-18T05:01:33.013Z,84.86
2023-05-18T05:06:32.953Z,82.75
2023-05-18T05:11:32.886Z,81.17
2023-05-18T05:16:32.862Z,84.01
2023-05-18T05:21:32.737Z,81.03
2023-05-18T05:26:32.674Z,82.84
2023-05-18T05:31:32.581Z,82.12
2023-05-18T05:36:32.542Z,80.85
2023-05-18T05:41:32.614Z,81.12
2023-05-18T05:46:32.434Z,80.57
2023-05-18T05:51:32.312Z,80.22
2023-05-18T05:56:32.288Z,79.16
2023-05-18T06:01:32.180Z,78.64
2023-05-18T06:06:32.132Z,76.68
2023-05-18T06:11:32.053Z,72.31
2023-05-18T06:16:32.085Z,63.64
2023-05-18T06:21:31.946Z,56.54
2023-05-18T06:26:31.881Z,55.07
2023-05-18T06:31:31.786Z,50.14
2023-05-18T06:36:31.740Z,50.42
2023-05-18T06:41:31.664Z,49.05
2023-05-18T06:46:31.769Z,51.78
2023-05-18T06:51:31.517Z,51.89
2023-05-18T06:56:31.517Z,49.37
2023-05-18T07:01:31.431Z,49.44
2023-05-18T07:06:31.368Z,48.64
2023-05-18T07:11:31.269Z,48.11
2023-05-18T07:16:31.324Z,48.24
2023-05-18T07:21:31.187Z,46.00
2023-05-18T07:26:31.071Z,46.04
2023-05-18T07:31:31.057Z,47.33
2023-05-18T07:36:30.967Z,46.64
2023-05-18T07:41:30.870Z,48.63
2023-05-18T07:46:30.898Z,43.04
2023-05-18T07:51:30.753Z,44.20
2023-05-18T07:56:30.690Z,41.85
2023-05-18T08:01:30.685Z,41.33
2023-05-18T08:06:30.886Z,41.25
2023-05-18T08:11:30.477Z,41.47
2023-05-18T08:16:30.474Z,41.63
2023-05-18T08:21:30.323Z,42.73
2023-05-18T08:26:30.360Z,38.10
2023-05-18T08:31:30.265Z,39.34
2023-05-18T08:36:30.152Z,37.40
2023-05-18T08:41:30.077Z,38.63
2023-05-18T08:46:30.045Z,42.35
2023-05-18T08:51:29.943Z,46.40
2023-05-18T08:56:29.916Z,47.70
2023-05-18T09:01:29.946Z,47.88
2023-05-18T09:06:29.789Z,44.21
2023-05-18T09:11:29.742Z,39.79
2023-05-18T09:16:29.751Z,41.23
2023-05-18T09:21:29.576Z,41.69
2023-05-18T09:26:29.499Z,43.28
2023-05-18T09:31:29.423Z,40.36
2023-05-18T09:36:29.362Z,36.61
2023-05-18T09:41:29.309Z,37.68
2023-05-18T09:46:29.254Z,40.59
2023-05-18T09:51:29.142Z,33.97
2023-05-18T09:56:29.117Z,33.30
2023-05-18T10:01:29.156Z,32.03
2023-05-18T10:06:29.051Z,31.60
2023-05-18T10:11:28.951Z,31.65
2023-05-18T10:16:28.863Z,34.10
2023-05-18T10:21:28.886Z,34.68
2023-05-18T10:26:28.852Z,35.54
2023-05-18T10:31:28.831Z,40.59
2023-05-18T10:36:28.643Z,39.42
2023-05-18T10:41:28.580Z,37.62
2023-05-18T10:46:28.920Z,31.05
2023-05-18T10:51:28.412Z,30.25
2023-05-18T10:56:28.328Z,32.05
2023-05-18T11:01:28.343Z,29.39
2023-05-18T11:06:28.244Z,32.28
2023-05-18T11:11:28.209Z,31.21
2023-05-18T11:16:29.986Z,35.01
2023-05-18T11:21:27.996Z,31.83
2023-05-18T11:26:27.978Z,32.51
2023-05-18T11:31:27.912Z,34.96
2023-05-18T11:36:27.828Z,34.05
2023-05-18T11:41:27.748Z,31.30
2023-05-18T11:46:27.701Z,31.20
2023-05-18T11:51:27.625Z,35.50
2023-05-18T11:56:27.551Z,33.42
2023-05-18T12:01:27.489Z,33.04
2023-05-18T12:06:27.466Z,35.80
2023-05-18T12:11:27.333Z,34.43
2023-05-18T12:16:27.324Z,34.41
2023-05-18T12:21:27.260Z,37.21
2023-05-18T12:26:27.221Z,40.32
2023-05-18T12:31:27.121Z,38.37
2023-05-18T12:36:27.048Z,36.85
2023-05-18T12:41:26.951Z,37.57
2023-05-18T12:46:27.002Z,35.28
2023-05-18T12:51:26.841Z,38.90
2023-05-18T12:56:26.789Z,36.47
2023-05-18T13:01:26.866Z,39.37
2023-05-18T13:06:26.672Z,36.19
2023-05-18T13:11:26.578Z,36.51
2023-05-18T13:16:26.545Z,37.75
2023-05-18T13:21:26.432Z,36.41
2023-05-18T13:26:26.429Z,40.17
2023-05-18T13:31:26.415Z,37.70
2023-05-18T13:36:26.237Z,36.49
2023-05-18T13:41:26.194Z,39.01
2023-05-18T13:46:26.241Z,38.59
2023-05-18T13:51:26.068Z,39.69
2023-05-18T13:56:26.043Z,36.71
2023-05-18T14:01:26.072Z,37.19
2023-05-18T14:06:25.939Z,37.27
2023-05-18T14:11:25.797Z,37.48
2023-05-18T14:16:25.760Z,39.48
2023-05-18T14:21:25.669Z,37.86
2023-05-18T14:26:25.569Z,36.73
2023-05-18T14:31:25.550Z,36.90
2023-05-18T14:36:25.481Z,37.71
2023-05-18T14:41:25.445Z,37.93
2023-05-18T14:46:25.392Z,36.94
2023-05-18T14:51:25.245Z,37.43
2023-05-18T14:56:25.218Z,38.63
2023-05-18T15:01:25.126Z,38.03
2023-05-18T15:06:25.049Z,36.73
2023-05-18T15:11:25.098Z,38.65
2023-05-18T15:16:24.981Z,38.45
2023-05-18T15:21:24.844Z,36.87
2023-05-18T15:26:24.792Z,36.65
2023-05-18T15:31:24.750Z,37.77
2023-05-18T15:36:24.679Z,37.75
2023-05-18T15:41:24.566Z,37.87
2023-05-18T15:46:24.660Z,38.39
2023-05-18T15:51:24.421Z,37.28
2023-05-18T15:56:24.465Z,37.88
2023-05-18T16:01:24.349Z,38.02
2023-05-18T16:06:24.271Z,38.81
2023-05-18T16:11:24.169Z,38.10
2023-05-18T16:16:24.217Z,38.12
2023-05-18T16:21:24.412Z,38.07
2023-05-18T16:26:23.953Z,38.07
2023-05-18T16:31:23.969Z,39.26
2023-05-18T16:36:23.885Z,38.46
2023-05-18T16:41:23.872Z,38.66
2023-05-18T16:46:23.778Z,38.88
2023-05-18T16:51:25.842Z,40.69
2023-05-18T16:56:23.623Z,40.48
2023-05-18T17:01:28.603Z,40.99
2023-05-18T17:06:24.497Z,41.11
2023-05-18T17:11:23.447Z,42.13
2023-05-18T17:16:23.371Z,42.13
2023-05-18T17:21:23.285Z,42.94
2023-05-18T17:26:23.191Z,42.13
2023-05-18T17:31:24.167Z,42.94
2023-05-18T17:36:23.060Z,42.35
2023-05-18T17:41:22.995Z,42.46
2023-05-18T17:46:22.959Z,41.95
2023-05-18T17:51:22.996Z,41.87
2023-05-18T17:56:22.852Z,41.67
2023-05-18T18:01:22.901Z,42.27
2023-05-18T18:06:22.730Z,42.30
2023-05-18T18:11:22.650Z,43.20
2023-05-18T18:16:22.599Z,43.82
2023-05-18T18:21:22.656Z,44.78
2023-05-18T18:26:22.421Z,45.70
2023-05-18T18:31:22.434Z,46.64
2023-05-18T18:36:23.268Z,46.66
2023-05-18T18:41:22.216Z,46.88
2023-05-18T18:46:22.236Z,47.51
2023-05-18T18:51:22.156Z,49.86
2023-05-18T18:56:24.197Z,48.74
2023-05-18T19:01:22.020Z,49.17
2023-05-18T19:06:21.887Z,49.19
2023-05-18T19:11:21.958Z,50.13
2023-05-18T19:16:22.063Z,50.34
2023-05-18T19:21:21.733Z,51.37
2023-05-18T19:26:21.717Z,51.50
2023-05-18T19:31:21.588Z,51.50
2023-05-18T19:36:21.493Z,56.70
2023-05-18T19:41:22.959Z,56.31
2023-05-18T19:46:21.416Z,54.51
2023-05-18T19:51:21.295Z,53.30
2023-05-18T19:56:21.212Z,53.83
2023-05-18T20:01:21.192Z,53.93
2023-05-18T20:06:21.178Z,59.41
2023-05-18T20:11:21.015Z,60.89
2023-05-18T20:16:21.175Z,57.36
2023-05-18T20:21:20.926Z,57.56
2023-05-18T20:26:21.159Z,57.67
2023-05-18T20:31:21.648Z,56.24
2023-05-18T20:36:20.659Z,56.55
2023-05-18T20:41:20.618Z,56.45
2023-05-18T20:46:20.647Z,57.06
2023-05-18T20:51:22.526Z,57.36
2023-05-18T20:56:20.658Z,57.79
2023-05-18T21:01:20.623Z,57.59
2023-05-18T21:06:20.283Z,57.69
2023-05-18T21:11:20.319Z,58.23
2023-05-18T21:16:20.216Z,58.03
2023-05-18T21:21:20.108Z,58.13
2023-05-18T21:26:19.994Z,58.03
2023-05-18T21:31:20.035Z,58.13
2023-05-18T21:36:19.962Z,58.03
2023-05-18T21:41:19.819Z,58.44
2023-05-18T21:46:19.793Z,58.33
2023-05-18T21:51:19.724Z,58.76
2023-05-18T21:56:19.611Z,58.76
2023-05-18T22:01:19.861Z,59.17
2023-05-18T22:06:19.498Z,59.17
2023-05-18T22:11:19.438Z,59.41
2023-05-18T22:16:19.391Z,59.41
2023-05-18T22:21:19.290Z,59.41
2023-05-18T22:26:19.214Z,59.71
2023-05-18T22:31:19.224Z,59.10
2023-05-18T22:36:19.130Z,59.10
2023-05-18T22:41:19.030Z,59.51
2023-05-18T22:46:18.995Z,59.94
2023-05-18T22:51:18.926Z,59.64
2023-05-18T22:56:19.000Z,60.14
2023-05-18T23:01:18.934Z,60.14
2023-05-18T23:06:18.722Z,62.32
2023-05-18T23:11:18.635Z,61.80
2023-05-18T23:16:18.570Z,61.22
2023-05-18T23:21:18.680Z,61.73
2023-05-18T23:26:18.453Z,63.06
2023-05-18T23:31:18.452Z,63.16
2023-05-18T23:36:18.292Z,63.60
2023-05-18T23:41:18.257Z,63.83
2023-05-18T23:46:18.165Z,65.26
2023-05-18T23:51:18.111Z,66.21
2023-05-18T23:56:18.055Z,66.66
